Time;durP1;ratioP1;P1;durP2;ratioP2;P2;SDS_P1;SDS_P2;PMS_P1;PMS_P2;Temp;Humidity;BMP_temperature;BMP_pressure;BME280_temperature;BME280_humidity;BME280_pressure;Samples;Min_cycle;Max_cycle;Signal;HPM_P1;HPM_P2
2020/12/30 00:01:38;;;;;;;14.82;6.35;;;;;;;6.49;90.43;98231.22;4915202;29;20569;-69
2020/12/30 00:04:05;;;;;;;15.00;6.10;;;;;;;6.46;90.63;98229.53;4914820;29;20037;-68
2020/12/30 00:06:33;;;;;;;13.77;6.53;;;;;;;6.43;90.68;98237.16;4914970;29;20486;-69
2020/12/30 00:09:01;;;;;;;12.02;5.53;;;;;;;6.40;90.64;98229.59;4916823;29;20051;-69
2020/12/30 00:11:29;;;;;;;10.50;5.78;;;;;;;6.40;90.48;98224.53;4918470;29;20048;-69
2020/12/30 00:13:57;;;;;;;10.48;5.60;;;;;;;6.40;90.75;98224.53;4946656;28;20058;-69
2020/12/30 00:16:24;;;;;;;10.75;6.32;;;;;;;6.39;90.44;98222.84;4977790;28;20039;-69
2020/12/30 00:18:52;;;;;;;9.35;4.85;;;;;;;6.35;90.59;98221.19;4977947;28;20074;-69
2020/12/30 00:21:20;;;;;;;7.93;5.10;;;;;;;6.31;91.14;98219.50;4977710;28;20050;-69
2020/12/30 00:23:48;;;;;;;9.30;4.75;;;;;;;6.29;90.83;98226.28;4977819;28;20122;-69
2020/12/30 00:26:19;;;;;;;9.32;4.95;;;;;;;6.28;90.67;98228.84;4977682;28;20101;-69
2020/12/30 00:28:50;;;;;;;8.60;4.38;;;;;;;6.25;90.71;98219.56;4977780;28;20058;-69
2020/12/30 00:31:18;;;;;;;9.80;4.82;;;;;;;6.32;91.17;98225.44;4977995;28;20047;-69
2020/12/30 00:33:46;;;;;;;10.50;4.90;;;;;;;6.23;91.05;98206.09;4977562;28;20047;-68
2020/12/30 00:36:13;;;;;;;9.88;5.40;;;;;;;6.17;90.99;98203.56;4977435;28;20059;-69
2020/12/30 00:38:43;;;;;;;8.88;5.18;;;;;;;6.33;90.95;98224.59;4977474;28;20205;-68
2020/12/30 00:41:13;;;;;;;10.20;4.65;;;;;;;6.29;90.99;98233.88;4977447;28;20101;-69
2020/12/30 00:43:42;;;;;;;8.05;4.60;;;;;;;6.28;90.78;98229.69;4977465;28;20097;-69
2020/12/30 00:46:15;;;;;;;7.97;5.03;;;;;;;6.27;90.62;98222.94;4977399;28;20043;-69
2020/12/30 00:48:47;;;;;;;8.93;5.22;;;;;;;6.23;90.71;98230.56;4977467;28;20497;-69
2020/12/30 00:51:15;;;;;;;10.45;5.30;;;;;;;6.23;91.02;98228.88;4976132;28;20046;-69
2020/12/30 00:53:44;;;;;;;8.63;4.57;;;;;;;6.19;90.76;98219.59;4976092;28;20046;-69
2020/12/30 00:56:13;;;;;;;10.07;5.55;;;;;;;6.21;90.89;98217.94;4976294;28;20035;-69
2020/12/30 00:58:42;;;;;;;11.30;5.72;;;;;;;6.21;90.65;98225.53;4977166;28;20102;-69
2020/12/30 01:01:19;;;;;;;13.05;6.30;;;;;;;6.23;90.46;98216.22;4992485;28;20058;-69
2020/12/30 01:03:49;;;;;;;10.90;6.47;;;;;;;6.24;90.69;98212.81;4977128;28;20097;-69
2020/12/30 01:06:17;;;;;;;10.20;5.82;;;;;;;6.19;90.72;98209.47;4977415;28;20452;-69
2020/12/30 01:08:47;;;;;;;10.63;6.13;;;;;;;6.19;90.87;98199.34;4977014;28;20461;-69
2020/12/30 01:11:23;;;;;;;10.50;5.72;;;;;;;6.20;91.16;98212.84;4976986;28;20038;-69
2020/12/30 01:13:52;;;;;;;10.63;5.70;;;;;;;6.17;91.03;98207.81;4976986;28;20055;-69
2020/12/30 01:16:20;;;;;;;11.18;5.63;;;;;;;6.19;90.87;98204.41;4976698;28;20093;-68
2020/12/30 01:18:48;;;;;;;9.27;5.55;;;;;;;6.20;90.63;98206.09;4976742;28;20133;-70
2020/12/30 01:21:16;;;;;;;13.05;5.95;;;;;;;6.18;90.86;98197.69;4975785;28;20031;-69
2020/12/30 01:23:44;;;;;;;10.73;6.18;;;;;;;6.21;90.80;98206.94;4977053;28;20043;-69
2020/12/30 01:26:12;;;;;;;12.57;6.70;;;;;;;6.20;90.83;98206.09;4976623;28;20055;-69
2020/12/30 01:28:43;;;;;;;11.45;6.00;;;;;;;6.06;90.85;98190.16;4976924;28;20500;-69
2020/12/30 01:31:11;;;;;;;13.18;6.50;;;;;;;6.15;90.99;98207.81;4976633;28;20054;-70
2020/12/30 01:33:39;;;;;;;13.05;5.80;;;;;;;6.15;91.03;98202.75;4976771;28;20046;-68
2020/12/30 01:36:07;;;;;;;10.55;5.25;;;;;;;6.13;90.71;98189.28;4976216;28;20059;-70
2020/12/30 01:38:36;;;;;;;13.77;5.47;;;;;;;6.16;90.95;98196.84;4976300;28;20035;-69
2020/12/30 01:41:04;;;;;;;9.13;5.07;;;;;;;6.15;91.25;98192.63;4976447;28;20042;-69
2020/12/30 01:43:31;;;;;;;11.02;5.22;;;;;;;6.16;90.88;98198.53;4976450;28;20508;-69
2020/12/30 01:46:00;;;;;;;8.88;5.30;;;;;;;6.13;91.03;98199.41;4976368;28;20497;-69
2020/12/30 01:48:30;;;;;;;10.40;5.40;;;;;;;6.14;90.96;98196.03;4976279;28;20046;-69
2020/12/30 01:50:57;;;;;;;11.43;5.75;;;;;;;6.13;90.84;98199.41;4976096;28;20129;-69
2020/12/30 01:53:25;;;;;;;14.35;6.55;;;;;;;6.11;91.09;98198.56;4975345;28;20122;-70
2020/12/30 01:55:56;;;;;;;8.87;5.17;;;;;;;5.91;90.91;98162.41;4975926;28;20098;-68
2020/12/30 01:58:23;;;;;;;12.55;6.38;;;;;;;6.13;90.78;98203.63;4976146;28;20288;-69
2020/12/30 02:00:54;;;;;;;12.07;6.38;;;;;;;5.66;90.72;98130.50;4976035;28;20129;-69
2020/12/30 02:03:24;;;;;;;14.35;7.22;;;;;;;6.06;91.02;98212.97;4976054;28;20555;-69
2020/12/30 02:05:57;;;;;;;10.90;6.00;;;;;;;6.05;90.71;98211.25;4976291;28;20393;-68
2020/12/30 02:08:25;;;;;;;11.73;6.63;;;;;;;6.08;90.87;98206.19;4975921;28;20129;-69
2020/12/30 02:10:53;;;;;;;10.43;5.57;;;;;;;6.08;91.15;98201.13;4975815;28;20397;-69
2020/12/30 02:13:21;;;;;;;10.98;5.75;;;;;;;6.10;90.93;98209.53;4975844;28;20035;-69
2020/12/30 02:15:49;;;;;;;12.43;5.95;;;;;;;6.07;90.84;98204.50;4975662;28;20043;-69
2020/12/30 02:18:18;;;;;;;10.32;5.95;;;;;;;6.10;91.09;98214.59;4975714;28;20051;-69
2020/12/30 02:20:45;;;;;;;11.45;5.82;;;;;;;6.12;90.45;98205.31;4975748;28;20043;-69
2020/12/30 02:23:15;;;;;;;11.43;6.18;;;;;;;6.13;91.09;98209.53;4975481;28;20065;-69
2020/12/30 02:25:44;;;;;;;11.20;5.90;;;;;;;6.09;91.05;98203.63;4975650;28;20058;-69
2020/12/30 02:28:12;;;;;;;10.30;5.78;;;;;;;6.09;91.07;98202.81;4975501;28;20050;-69
2020/12/30 02:30:40;;;;;;;11.20;6.30;;;;;;;6.06;90.85;98208.75;4974863;28;20035;-69
2020/12/30 02:33:09;;;;;;;10.65;6.05;;;;;;;6.07;90.73;98209.56;4975717;28;20097;-68
2020/12/30 02:35:37;;;;;;;10.43;6.30;;;;;;;6.09;91.14;98202.81;4975151;28;20051;-68
2020/12/30 02:38:05;;;;;;;13.50;6.28;;;;;;;6.10;90.92;98204.47;4975354;28;20050;-69
2020/12/30 02:40:33;;;;;;;10.18;5.75;;;;;;;6.07;91.00;98209.56;4975235;28;20043;-68
2020/12/30 02:43:02;;;;;;;10.68;6.45;;;;;;;6.07;90.75;98215.47;4975322;28;20137;-68
2020/12/30 02:45:29;;;;;;;12.52;6.60;;;;;;;6.08;91.03;98211.25;4975248;28;20176;-68
2020/12/30 02:47:57;;;;;;;12.35;6.82;;;;;;;6.09;90.93;98211.22;4975085;28;20401;-69
2020/12/30 02:50:24;;;;;;;11.40;6.68;;;;;;;6.08;91.16;98211.25;4974010;28;20038;-68
2020/12/30 02:52:53;;;;;;;11.55;6.45;;;;;;;6.11;90.98;98210.38;4975096;28;20054;-68
2020/12/30 02:55:20;;;;;;;11.10;6.55;;;;;;;6.11;91.42;98210.38;4974945;28;20137;-68
2020/12/30 02:57:49;;;;;;;13.95;7.13;;;;;;;6.13;90.91;98219.66;4975132;28;20508;-68
2020/12/30 03:00:17;;;;;;;13.48;6.25;;;;;;;6.11;91.01;98216.31;4974992;28;20046;-68
2020/12/30 03:02:45;;;;;;;11.73;6.75;;;;;;;6.11;91.21;98221.38;4974990;28;20400;-69
2020/12/30 03:05:12;;;;;;;11.05;6.10;;;;;;;6.10;91.11;98217.13;4975292;28;20129;-68
2020/12/30 03:07:40;;;;;;;11.90;6.15;;;;;;;6.14;91.06;98225.56;4973734;28;20043;-69
2020/12/30 03:10:22;;;;;;;10.68;5.47;;;;;;;6.15;91.33;98222.16;4915732;29;20135;-68
2020/12/30 03:12:51;;;;;;;12.32;5.75;;;;;;;6.16;91.12;98218.78;4915592;29;20048;-68
2020/12/30 03:15:20;;;;;;;10.73;5.63;;;;;;;6.19;91.05;98221.31;4915440;29;20046;-68
2020/12/30 03:17:48;;;;;;;11.32;6.20;;;;;;;6.19;91.25;98218.78;4915456;29;20091;-68
2020/12/30 03:20:15;;;;;;;9.75;5.03;;;;;;;6.20;91.50;98225.50;4915306;29;20040;-69
2020/12/30 03:22:43;;;;;;;12.48;5.55;;;;;;;6.23;91.28;98218.75;4915324;29;20048;-68
2020/12/30 03:25:11;;;;;;;11.07;5.28;;;;;;;6.26;91.57;98223.81;4915404;29;20056;-68
2020/12/30 03:27:39;;;;;;;10.73;5.15;;;;;;;6.29;91.59;98227.97;4915209;29;20056;-68
2020/12/30 03:30:07;;;;;;;9.07;4.43;;;;;;;6.07;91.30;98189.28;4915367;29;20040;-69
2020/12/30 03:32:35;;;;;;;7.80;4.20;;;;;;;6.50;91.58;98231.19;4915267;29;20143;-68
2020/12/30 03:35:03;;;;;;;6.35;3.13;;;;;;;6.77;90.95;98219.97;4914871;29;20159;-68
2020/12/30 03:37:32;;;;;;;8.35;3.40;;;;;;;6.83;90.53;98225.00;4915302;29;20059;-68
2020/12/30 03:39:59;;;;;;;5.95;2.90;;;;;;;6.86;90.68;98224.13;4915196;29;20127;-68
2020/12/30 03:42:28;;;;;;;5.97;2.75;;;;;;;6.85;90.04;98227.50;4916451;29;20135;-68
2020/12/30 03:44:58;;;;;;;6.95;2.80;;;;;;;6.55;89.50;98178.78;4919036;29;20063;-69
2020/12/30 03:47:28;;;;;;;7.68;3.10;;;;;;;6.90;88.71;98225.78;4945447;28;20138;-69
2020/12/30 03:49:57;;;;;;;5.80;2.70;;;;;;;6.90;88.45;98220.72;4978550;28;20059;-68
2020/12/30 03:52:24;;;;;;;7.68;3.13;;;;;;;6.87;87.55;98225.78;4978370;28;20039;-69
2020/12/30 03:54:52;;;;;;;7.75;3.38;;;;;;;6.84;87.45;98225.84;4978317;28;20417;-69
2020/12/30 03:57:20;;;;;;;6.97;3.38;;;;;;;6.81;86.76;98225.88;4978299;28;20046;-68
2020/12/30 03:59:47;;;;;;;7.05;2.42;;;;;;;6.83;86.50;98224.16;4978502;28;20070;-69
2020/12/30 04:02:15;;;;;;;7.40;2.70;;;;;;;6.82;86.84;98223.31;4978301;28;20050;-69
2020/12/30 04:04:45;;;;;;;9.40;4.00;;;;;;;6.57;86.35;98184.69;4978376;28;20057;-69
2020/12/30 04:07:14;;;;;;;10.27;3.80;;;;;;;6.86;86.01;98230.06;4978229;28;20089;-69
2020/12/30 04:09:42;;;;;;;9.07;3.40;;;;;;;6.84;86.20;98221.59;4978035;28;20074;-68
2020/12/30 04:12:10;;;;;;;6.38;3.15;;;;;;;6.84;85.50;98220.78;4978137;28;20039;-69
2020/12/30 04:14:38;;;;;;;6.53;2.58;;;;;;;6.84;85.89;98225.84;4977927;28;20043;-70
2020/12/30 04:17:06;;;;;;;7.07;3.15;;;;;;;6.83;85.19;98214.88;4977845;28;20046;-70
2020/12/30 04:19:34;;;;;;;5.95;3.42;;;;;;;6.82;85.42;98214.84;4977882;28;20046;-70
2020/12/30 04:22:02;;;;;;;7.78;3.50;;;;;;;6.80;85.48;98211.50;4977851;28;20054;-70
2020/12/30 04:24:32;;;;;;;7.25;3.30;;;;;;;6.74;85.52;98215.78;4977801;28;20047;-70
2020/12/30 04:26:59;;;;;;;9.30;3.42;;;;;;;6.79;85.55;98209.84;4978060;28;20485;-70
2020/12/30 04:29:27;;;;;;;7.60;3.42;;;;;;;6.78;85.36;98216.59;4977685;28;20047;-70
2020/12/30 04:31:54;;;;;;;8.15;2.92;;;;;;;6.80;85.46;98209.81;4977630;28;20043;-69
2020/12/30 04:34:22;;;;;;;10.23;3.42;;;;;;;6.78;85.38;98201.38;4977950;28;20175;-69
2020/12/30 04:36:50;;;;;;;6.78;3.55;;;;;;;6.78;85.36;98201.38;4977187;28;20093;-69
2020/12/30 04:39:18;;;;;;;6.20;2.70;;;;;;;6.78;85.72;98205.63;4977543;28;20039;-69
2020/12/30 04:41:48;;;;;;;6.60;3.22;;;;;;;6.81;85.96;98210.66;4977539;28;20050;-69
2020/12/30 04:44:17;;;;;;;6.80;3.28;;;;;;;6.80;85.54;98214.03;4977545;28;20043;-69
2020/12/30 04:46:48;;;;;;;6.38;3.22;;;;;;;6.77;85.96;98212.38;4977371;28;20207;-69
2020/12/30 04:49:16;;;;;;;6.95;3.38;;;;;;;6.77;85.52;98214.09;4977473;28;20065;-69
2020/12/30 04:51:45;;;;;;;7.72;3.20;;;;;;;6.77;86.07;98219.16;4977373;28;20043;-69
2020/12/30 04:54:14;;;;;;;7.90;2.77;;;;;;;6.74;85.80;98210.69;4976454;28;20046;-69
2020/12/30 04:56:57;;;;;;;6.47;3.53;;;;;;;6.53;85.87;98182.16;4977248;28;20054;-69
2020/12/30 04:59:28;;;;;;;8.15;3.88;;;;;;;6.69;85.99;98212.44;4977178;28;20284;-70
2020/12/30 05:02:04;;;;;;;8.07;3.78;;;;;;;6.31;85.97;98155.38;4977171;28;20078;-69
2020/12/30 05:04:32;;;;;;;9.02;3.97;;;;;;;6.64;86.33;98219.25;4977501;28;20047;-69
2020/12/30 05:07:05;;;;;;;7.05;3.40;;;;;;;6.67;86.14;98219.22;4977003;28;20102;-69
2020/12/30 05:09:35;;;;;;;5.57;2.95;;;;;;;6.27;85.98;98159.59;4977139;28;20149;-69
2020/12/30 05:12:11;;;;;;;7.72;3.53;;;;;;;6.65;86.46;98233.59;4977266;28;20070;-69
2020/12/30 05:14:39;;;;;;;6.10;3.08;;;;;;;6.66;86.18;98222.63;4977299;28;20130;-70
2020/12/30 05:17:08;;;;;;;8.05;3.70;;;;;;;6.66;86.01;98222.63;4976829;28;20043;-69
2020/12/30 05:19:36;;;;;;;8.63;3.33;;;;;;;6.64;86.17;98224.34;4976792;28;20043;-69
2020/12/30 05:22:04;;;;;;;8.85;3.83;;;;;;;6.62;86.44;98231.09;4976998;28;20070;-69
2020/12/30 05:24:32;;;;;;;7.07;3.70;;;;;;;6.65;86.54;98226.00;4976793;28;20047;-69
2020/12/30 05:27:00;;;;;;;10.43;3.80;;;;;;;6.70;86.56;98229.34;4976645;28;20047;-69
2020/12/30 05:29:29;;;;;;;10.43;3.53;;;;;;;6.68;86.02;98231.06;4976996;28;20039;-69
2020/12/30 05:31:57;;;;;;;5.28;2.85;;;;;;;6.75;86.13;98227.59;4975685;28;20047;-69
2020/12/30 05:34:25;;;;;;;6.63;3.28;;;;;;;6.50;85.84;98193.19;4976521;28;20082;-69
2020/12/30 05:36:53;;;;;;;6.78;3.45;;;;;;;6.58;85.82;98204.09;4975075;28;20057;-69
2020/12/30 05:39:28;;;;;;;7.93;3.40;;;;;;;6.77;85.51;98235.19;4976335;28;20047;-69
2020/12/30 05:42:09;;;;;;;6.40;3.30;;;;;;;6.80;85.67;98234.31;4976521;28;20523;-69
2020/12/30 05:44:39;;;;;;;8.30;3.72;;;;;;;6.79;85.79;98241.06;4976713;28;20050;-69
2020/12/30 05:47:12;;;;;;;6.78;3.40;;;;;;;6.75;85.48;98254.66;4976361;28;20042;-69
2020/12/30 05:49:40;;;;;;;9.82;3.78;;;;;;;6.64;85.18;98249.69;4976280;28;20057;-69
2020/12/30 05:52:11;;;;;;;7.72;4.60;;;;;;;6.59;85.50;98251.41;4976443;28;20117;-69
2020/12/30 05:54:38;;;;;;;6.97;3.97;;;;;;;6.55;85.48;98254.81;4976186;28;20097;-69
2020/12/30 05:57:22;;;;;;;11.32;4.38;;;;;;;6.50;86.04;98260.78;4975942;28;20051;-70
2020/12/30 05:59:54;;;;;;;7.97;4.45;;;;;;;6.51;86.17;98253.16;4976162;28;20047;-69
2020/12/30 06:02:24;;;;;;;7.95;3.92;;;;;;;6.51;86.50;98253.16;4976119;28;20066;-69
2020/12/30 06:04:52;;;;;;;10.18;4.53;;;;;;;6.52;86.35;98252.31;4976041;28;20049;-69
2020/12/30 06:07:20;;;;;;;7.87;3.57;;;;;;;6.50;86.62;98251.47;4975838;28;20054;-69
2020/12/30 06:09:52;;;;;;;6.57;3.80;;;;;;;6.49;86.15;98249.78;4976127;28;20050;-70
2020/12/30 06:12:25;;;;;;;8.35;3.80;;;;;;;6.50;86.48;98253.19;4975848;28;20098;-70
2020/12/30 06:14:54;;;;;;;7.10;3.45;;;;;;;6.50;87.12;98250.66;4974689;28;20054;-69
2020/12/30 06:17:28;;;;;;;7.72;3.78;;;;;;;6.50;86.57;98259.06;4975744;28;20057;-70
2020/12/30 06:19:56;;;;;;;6.07;3.40;;;;;;;6.50;86.79;98254.00;4976059;28;20051;-70
2020/12/30 06:22:27;;;;;;;8.00;3.50;;;;;;;6.49;86.89;98248.94;4975989;28;20054;-70
2020/12/30 06:24:56;;;;;;;7.68;4.05;;;;;;;6.48;87.18;98253.16;4975581;28;20042;-69
2020/12/30 06:27:26;;;;;;;8.50;4.22;;;;;;;6.48;86.82;98250.63;4975638;28;20105;-69
2020/12/30 06:29:56;;;;;;;8.75;3.83;;;;;;;6.44;87.06;98255.75;4975561;28;20066;-68
2020/12/30 06:32:28;;;;;;;7.78;3.88;;;;;;;6.42;87.25;98248.16;4975474;28;20130;-69
2020/12/30 06:34:58;;;;;;;9.57;4.15;;;;;;;6.47;87.35;98246.44;4975546;28;20046;-70
2020/12/30 06:37:27;;;;;;;6.13;3.35;;;;;;;6.46;87.81;98254.88;4975148;28;20042;-69
2020/12/30 06:40:01;;;;;;;9.27;3.42;;;;;;;6.52;87.65;98244.72;4975415;28;20053;-68
2020/12/30 06:42:31;;;;;;;8.65;3.95;;;;;;;6.53;87.67;98251.44;4975362;28;20066;-69
2020/12/30 06:44:59;;;;;;;;;;;;;;;6.52;87.60;98248.94;4975648;28;20134;-70
2020/12/30 06:47:50;;;;;;;6.05;3.20;;;;;;;6.52;87.85;98249.78;4975267;28;19929;-69
2020/12/30 06:50:18;;;;;;;5.63;2.83;;;;;;;6.54;87.93;98252.28;4974995;28;20133;-69
2020/12/30 06:52:45;;;;;;;6.45;3.38;;;;;;;6.54;87.68;98254.81;4975177;28;20039;-69
2020/12/30 06:55:13;;;;;;;6.22;2.97;;;;;;;6.54;87.99;98248.06;4975051;28;20071;-69
2020/12/30 06:57:44;;;;;;;15.45;6.88;;;;;;;6.33;87.87;98222.06;4975019;28;20046;-69
2020/12/30 07:00:18;;;;;;;18.92;7.97;;;;;;;6.52;88.18;98252.31;4975107;28;20050;-69
2020/12/30 07:03:10;;;;;;;19.00;8.13;;;;;;;6.46;87.80;98249.81;4975070;28;20055;-70
2020/12/30 07:05:38;;;;;;;17.42;7.20;;;;;;;6.38;88.22;98251.56;4975045;28;20390;-69
2020/12/30 07:08:07;;;;;;;14.43;6.80;;;;;;;6.34;88.37;98254.13;4975181;28;20081;-68
2020/12/30 07:10:41;;;;;;;9.93;5.03;;;;;;;6.04;88.45;98209.59;4974928;28;20051;-69
2020/12/30 07:13:09;;;;;;;11.32;5.68;;;;;;;6.38;88.89;98260.88;4975010;28;20081;-68
2020/12/30 07:15:37;;;;;;;10.30;5.60;;;;;;;6.38;88.66;98266.75;4974791;28;20038;-69
2020/12/30 07:18:08;;;;;;;9.80;5.22;;;;;;;6.16;88.47;98239.06;4974438;28;20047;-68
2020/12/30 07:20:39;;;;;;;8.52;4.63;;;;;;;6.37;89.26;98262.56;4974789;28;20105;-69
2020/12/30 07:23:11;;;;;;;7.13;4.60;;;;;;;6.31;88.91;98262.59;4974848;28;20456;-69
2020/12/30 07:25:50;;;;;;;7.82;4.40;;;;;;;6.36;89.11;98272.72;4974820;28;20109;-69
2020/12/30 07:28:18;;;;;;;8.93;4.43;;;;;;;6.37;89.52;98285.34;4974720;28;20101;-69
2020/12/30 07:30:46;;;;;;;8.82;4.57;;;;;;;6.38;89.21;98276.88;4974736;28;20141;-69
2020/12/30 07:33:15;;;;;;;8.32;4.53;;;;;;;6.30;89.03;98268.50;4974682;28;20057;-69
2020/12/30 07:35:42;;;;;;;7.15;3.90;;;;;;;6.38;89.59;98276.88;4974194;28;20401;-69
2020/12/30 07:38:13;;;;;;;8.13;3.90;;;;;;;6.39;89.58;98273.50;4974706;28;20117;-69
2020/12/30 07:40:40;;;;;;;8.38;4.20;;;;;;;6.42;90.12;98270.13;4974661;28;20047;-69
2020/12/30 07:43:08;;;;;;;5.07;3.20;;;;;;;6.41;90.04;98271.81;4974908;28;20081;-69
2020/12/30 07:45:36;;;;;;;7.47;3.25;;;;;;;6.46;89.67;98284.44;4974592;28;20047;-69
2020/12/30 07:48:08;;;;;;;5.97;2.80;;;;;;;6.51;89.71;98281.03;4974460;28;20400;-69
2020/12/30 07:50:50;;;;;;;6.22;3.00;;;;;;;6.52;89.73;98282.72;4974548;28;20059;-69
2020/12/30 07:53:19;;;;;;;7.50;3.33;;;;;;;6.53;89.62;98286.91;4974533;28;20564;-69
2020/12/30 07:55:46;;;;;;;8.35;3.72;;;;;;;6.49;89.11;98287.81;4973231;28;20043;-69
2020/12/30 07:58:15;;;;;;;9.57;3.78;;;;;;;6.49;89.19;98286.97;4974516;28;20123;-69
2020/12/30 08:00:46;;;;;;;7.00;3.63;;;;;;;6.51;89.15;98287.78;4974401;28;20039;-69
2020/12/30 08:03:32;;;;;;;6.18;3.17;;;;;;;6.49;89.96;98294.56;4974464;28;20106;-70
2020/12/30 08:06:02;;;;;;;6.53;3.72;;;;;;;6.49;89.30;98295.41;4934154;29;20079;-69
2020/12/30 08:08:29;;;;;;;;;;;;;;;6.49;89.54;98290.34;4934323;29;20060;-69
2020/12/30 08:10:57;;;;;;;9.23;4.07;;;;;;;6.49;89.26;98290.34;4933986;29;19923;-69
2020/12/30 08:13:24;;;;;;;7.45;4.03;;;;;;;6.50;89.24;98302.13;4933862;29;20044;-67
2020/12/30 08:15:53;;;;;;;8.93;4.45;;;;;;;6.48;89.78;98298.78;4933434;29;20427;-69
2020/12/30 08:18:20;;;;;;;8.15;3.83;;;;;;;6.46;89.60;98300.50;4933881;29;20090;-68
2020/12/30 08:20:48;;;;;;;8.13;3.75;;;;;;;6.45;89.75;98297.97;4933635;29;20077;-69
2020/12/30 08:23:18;;;;;;;8.82;4.55;;;;;;;6.46;89.74;98297.97;4933846;29;20040;-69
2020/12/30 08:25:48;;;;;;;10.05;4.07;;;;;;;6.47;89.90;98297.13;4933809;29;20056;-69
2020/12/30 08:28:15;;;;;;;8.70;4.13;;;;;;;6.36;89.75;98278.59;4947044;28;20043;-69
2020/12/30 08:30:44;;;;;;;6.97;3.80;;;;;;;6.52;89.80;98304.69;4955922;29;20085;-69
2020/12/30 08:33:13;;;;;;;10.25;5.72;;;;;;;6.53;90.06;98302.13;4956310;29;20166;-68
2020/12/30 08:35:47;;;;;;;8.60;4.45;;;;;;;6.35;89.92;98276.94;4955981;29;20610;-68
2020/12/30 08:38:17;;;;;;;9.82;5.32;;;;;;;6.56;89.96;98308.88;4956313;29;20533;-68
2020/12/30 08:40:51;;;;;;;9.40;4.22;;;;;;;6.39;89.79;98287.88;4956267;29;20058;-69
2020/12/30 08:43:32;;;;;;;7.80;4.65;;;;;;;6.52;90.16;98315.66;4984152;28;20515;-68
2020/12/30 08:46:06;;;;;;;6.85;4.13;;;;;;;6.51;90.15;98319.03;5005530;28;20053;-70
2020/12/30 08:48:35;;;;;;;6.82;3.97;;;;;;;6.53;90.11;98321.56;4997261;28;20085;-69
2020/12/30 08:51:03;;;;;;;7.88;4.13;;;;;;;6.55;89.87;98324.94;4996743;28;20047;-69
2020/12/30 08:53:34;;;;;;;8.68;4.20;;;;;;;6.54;90.04;98319.03;4996813;28;20039;-69
2020/12/30 08:56:04;;;;;;;7.60;4.43;;;;;;;6.56;90.09;98316.47;4996764;28;20596;-69
2020/12/30 08:58:32;;;;;;;6.65;3.63;;;;;;;6.56;90.18;98307.19;4996598;28;20054;-69
2020/12/30 09:01:01;;;;;;;7.20;3.45;;;;;;;6.49;90.09;98297.94;4996649;28;20050;-69
2020/12/30 09:03:29;;;;;;;6.63;3.75;;;;;;;6.58;90.27;98305.47;4996549;28;20400;-68
2020/12/30 09:05:58;;;;;;;6.30;3.70;;;;;;;6.58;90.53;98310.53;4996799;28;20049;-68
2020/12/30 09:08:28;;;;;;;;;;;;;;;6.60;90.32;98316.44;4996919;28;20054;-69
2020/12/30 09:10:56;;;;;;;5.35;3.03;;;;;;;6.61;89.98;98307.16;5005491;28;19925;-69
2020/12/30 09:13:29;;;;;;;5.55;3.35;;;;;;;6.41;90.16;98276.88;5008147;28;20061;-69
2020/12/30 09:16:03;;;;;;;7.70;3.72;;;;;;;6.63;90.23;98305.44;4998395;28;20507;-69
2020/12/30 09:18:36;;;;;;;7.07;3.63;;;;;;;6.60;90.44;98303.75;5012999;28;20046;-68
2020/12/30 09:21:04;;;;;;;7.35;3.83;;;;;;;6.65;90.21;98307.09;5015782;28;20042;-69
2020/12/30 09:23:32;;;;;;;6.10;3.30;;;;;;;6.66;90.50;98308.81;5015655;28;20050;-69
2020/12/30 09:26:03;;;;;;;8.70;3.65;;;;;;;6.66;90.31;98307.97;5015746;28;20045;-68
2020/12/30 09:28:35;;;;;;;7.45;3.78;;;;;;;6.60;90.14;98301.22;5015774;28;20046;-69
2020/12/30 09:31:06;;;;;;;6.18;3.88;;;;;;;6.68;89.92;98307.09;5015710;28;20057;-69
2020/12/30 09:33:34;;;;;;;7.70;3.83;;;;;;;6.68;90.33;98302.03;5015646;28;20058;-68
2020/12/30 09:36:08;;;;;;;5.45;3.63;;;;;;;6.67;89.99;98299.50;5015169;28;20141;-70
2020/12/30 09:38:37;;;;;;;8.77;4.50;;;;;;;6.67;90.61;98305.41;5015585;28;20539;-68
2020/12/30 09:41:13;;;;;;;8.50;4.32;;;;;;;6.66;90.20;98318.09;5015165;28;20124;-68
2020/12/30 09:43:46;;;;;;;6.55;4.05;;;;;;;6.65;90.51;98309.66;5015371;28;20074;-68
2020/12/30 09:46:21;;;;;;;6.25;4.07;;;;;;;6.63;90.46;98308.81;5015468;28;20038;-68
2020/12/30 09:48:49;;;;;;;8.02;4.28;;;;;;;6.67;90.62;98315.53;5015582;28;20080;-69
2020/12/30 09:51:18;;;;;;;7.97;3.95;;;;;;;6.69;90.34;98313.81;5013578;28;20456;-68
2020/12/30 09:53:45;;;;;;;7.40;3.75;;;;;;;6.69;90.43;98315.53;5000195;28;20086;-69
2020/12/30 09:56:14;;;;;;;6.22;3.60;;;;;;;6.71;89.89;98322.28;4995426;28;20069;-70
2020/12/30 09:58:41;;;;;;;6.28;3.58;;;;;;;6.74;90.42;98314.63;4990551;28;20046;-69
2020/12/30 10:01:10;;;;;;;5.75;3.45;;;;;;;6.78;90.19;98317.16;4995436;28;20038;-69
2020/12/30 10:03:38;;;;;;;7.18;3.30;;;;;;;6.75;90.47;98318.88;4994803;28;20059;-69
2020/12/30 10:06:05;;;;;;;6.80;3.53;;;;;;;6.78;90.15;98322.22;4995228;28;20046;-69
2020/12/30 10:08:34;;;;;;;6.60;3.60;;;;;;;6.79;90.32;98314.59;4995236;28;20043;-70
2020/12/30 10:11:01;;;;;;;6.18;3.30;;;;;;;6.81;90.75;98317.16;4995365;28;20070;-69
2020/12/30 10:13:30;;;;;;;6.07;3.67;;;;;;;6.79;90.62;98313.78;4995215;28;20077;-69
2020/12/30 10:15:57;;;;;;;5.78;3.42;;;;;;;6.77;90.30;98313.78;4995079;28;20069;-70
2020/12/30 10:18:27;;;;;;;6.63;3.60;;;;;;;6.78;90.41;98312.09;4995165;28;20050;-70
2020/12/30 10:20:55;;;;;;;;;;;;;;;6.78;90.02;98312.09;4995366;28;20433;-69
2020/12/30 10:23:22;;;;;;;5.68;3.05;;;;;;;6.75;90.14;98298.59;4995382;28;19921;-69
2020/12/30 10:25:50;;;;;;;6.40;3.40;;;;;;;6.86;90.75;98312.88;4995110;28;20034;-70
2020/12/30 10:28:18;;;;;;;6.05;3.63;;;;;;;6.85;90.54;98314.56;4994964;28;20053;-70
2020/12/30 10:30:45;;;;;;;6.35;3.03;;;;;;;6.82;89.68;98313.75;4995011;28;20046;-69
2020/12/30 10:33:13;;;;;;;6.30;3.28;;;;;;;6.81;90.18;98317.16;4995148;28;20046;-69
2020/12/30 10:35:42;;;;;;;6.30;2.95;;;;;;;6.82;89.63;98309.50;4994676;28;20052;-69
2020/12/30 10:38:10;;;;;;;4.32;2.50;;;;;;;6.85;90.00;98313.72;4994813;28;20077;-69
2020/12/30 10:40:37;;;;;;;4.97;2.60;;;;;;;6.85;90.77;98306.13;4994797;28;20097;-70
2020/12/30 10:43:05;;;;;;;4.45;2.20;;;;;;;6.87;89.86;98317.06;4994777;28;20050;-69
2020/12/30 10:45:33;;;;;;;6.95;2.50;;;;;;;6.90;90.26;98312.00;4997778;28;20034;-69
2020/12/30 10:48:01;;;;;;;5.07;2.75;;;;;;;6.87;89.44;98296.78;4997082;28;20137;-68
2020/12/30 10:50:28;;;;;;;4.57;2.90;;;;;;;7.00;89.86;98308.53;4994587;28;20050;-69
2020/12/30 10:52:58;;;;;;;7.90;3.63;;;;;;;7.04;89.98;98310.16;4994019;28;20041;-69
2020/12/30 10:55:26;;;;;;;4.43;2.63;;;;;;;7.07;89.93;98312.69;4994517;28;20038;-69
2020/12/30 10:57:53;;;;;;;6.00;2.45;;;;;;;7.12;90.13;98308.41;4994391;28;20468;-69
2020/12/30 11:00:21;;;;;;;4.95;3.00;;;;;;;7.17;89.73;98311.75;4994445;28;20117;-70
2020/12/30 11:02:49;;;;;;;5.30;2.90;;;;;;;7.23;89.43;98306.63;4994831;28;20061;-70
2020/12/30 11:05:17;;;;;;;5.45;2.83;;;;;;;7.35;90.17;98302.25;4994365;28;20120;-69
2020/12/30 11:07:44;;;;;;;5.43;3.03;;;;;;;7.40;90.17;98284.44;4994303;28;20125;-68
2020/12/30 11:10:14;;;;;;;5.40;3.10;;;;;;;7.57;89.58;98294.41;4994356;28;20042;-69
2020/12/30 11:12:45;;;;;;;4.50;2.60;;;;;;;7.59;89.52;98285.94;4994319;28;20042;-69
2020/12/30 11:15:13;;;;;;;4.95;2.72;;;;;;;7.40;89.08;98271.75;4994323;28;20127;-69
2020/12/30 11:17:41;;;;;;;4.00;2.30;;;;;;;7.63;88.70;98295.19;4994398;28;20039;-69
2020/12/30 11:20:11;;;;;;;4.53;2.58;;;;;;;7.55;89.19;98289.38;4994180;28;20110;-69
2020/12/30 11:22:39;;;;;;;4.90;2.50;;;;;;;7.57;88.55;98297.81;4994134;28;20420;-69
2020/12/30 11:25:06;;;;;;;3.55;2.20;;;;;;;7.54;89.12;98296.97;4994109;28;20245;-69
2020/12/30 11:27:35;;;;;;;3.95;2.40;;;;;;;7.52;88.16;98297.00;4994128;28;20229;-69
2020/12/30 11:30:08;;;;;;;4.10;2.30;;;;;;;7.51;89.04;98297.03;4991246;28;20129;-70
2020/12/30 11:32:36;;;;;;;4.90;2.60;;;;;;;7.49;88.58;98289.41;4992602;28;20484;-70
2020/12/30 11:35:04;;;;;;;4.00;2.45;;;;;;;7.50;88.62;98291.13;4994067;28;20424;-70
2020/12/30 11:37:31;;;;;;;4.68;2.67;;;;;;;7.51;88.88;98289.41;4993837;28;20089;-70
2020/12/30 11:40:00;;;;;;;5.05;2.78;;;;;;;7.47;88.89;98298.75;4994060;28;20042;-70
2020/12/30 11:42:27;;;;;;;4.35;2.78;;;;;;;7.38;88.12;98301.38;4994192;28;20081;-70
2020/12/30 11:44:56;;;;;;;4.07;2.50;;;;;;;7.33;87.84;98298.06;4994216;28;20444;-70
2020/12/30 11:47:24;;;;;;;7.03;2.80;;;;;;;7.29;87.62;98296.41;4993988;28;20046;-69
2020/12/30 11:49:53;;;;;;;5.57;3.28;;;;;;;7.23;87.98;98288.84;4994030;28;20504;-69
2020/12/30 11:52:21;;;;;;;7.25;3.67;;;;;;;7.29;87.76;98296.41;4993835;28;20042;-69